Chieftan — FNSB — position and weather

sailwx.info

Track history (hours):
 
Tides and Currents Weather Stations Pressure Air Temp Water Temp Dewpoint Dewpoint Depression Visibility Wind Speed Wind Dir Waves Ship Positions

Chieftan

Last reported at 2015-Nov-30 21:31 UTC. Time now 2016-Feb-13 17:12 UTC.
Position N 15°48' W 061°42'.
Warning: this ship's position is months out of date.

Length 25 m; draft 3.8 m.

Type: Tug. MMSI: 347001900.

Date/timePositionNaut miles runAvg speedWind from/ knotsBaromVisibWave heightAir tempDewpointWater temp
2015-Nov-30 21:31N 15°48' W 061°42'7 7.0
2015-Nov-30 20:32N 15°54' W 061°46'7 6.8
2015-Nov-30 19:32N 15°60' W 061°48'8 6.9
2015-Nov-30 18:26N 16°07' W 061°52'6 7.3
2015-Nov-30 17:33N 16°12' W 061°55'8 7.4
2015-Nov-30 16:28N 16°20' W 061°59'8 9.0
2015-Nov-30 15:33N 16°26' W 062°04'8 8.0
2015-Nov-30 14:33N 16°33' W 062°09'9 7.8
2015-Nov-30 13:27N 16°40' W 062°14'7 7.6
2015-Nov-30 12:33N 16°45' W 062°18'  
Track history (hours):
 
Tides and Currents Weather Stations Pressure Air Temp Water Temp Dewpoint Dewpoint Depression Visibility Wind Speed Wind Dir Waves Ship Positions

Chieftan

Last reported at 2015-Nov-30 21:31 UTC. Time now 2016-Feb-13 17:12 UTC.
Position N 15°48' W 061°42'.
Warning: this ship's position is months out of date.

Length 25 m; draft 3.8 m.

Type: Tug. MMSI: 347001900.

Date/timePositionNaut miles runAvg speedWind from/ knotsBaromVisibWave heightAir tempDewpointWater temp
2015-Nov-30 21:31N 15°48' W 061°42'7 7.0
2015-Nov-30 20:32N 15°54' W 061°46'7 6.8
2015-Nov-30 19:32N 15°60' W 061°48'8 6.9
2015-Nov-30 18:26N 16°07' W 061°52'6 7.3
2015-Nov-30 17:33N 16°12' W 061°55'8 7.4
2015-Nov-30 16:28N 16°20' W 061°59'8 9.0
2015-Nov-30 15:33N 16°26' W 062°04'8 8.0
2015-Nov-30 14:33N 16°33' W 062°09'9 7.8
2015-Nov-30 13:27N 16°40' W 062°14'7 7.6
2015-Nov-30 12:33N 16°45' W 062°18'  

Dump ship's entire track history